Time;durP1;ratioP1;P1;durP2;ratioP2;P2;SDS_P1;SDS_P2;PMS_P1;PMS_P2;Temp;Humidity;BMP_temperature;BMP_pressure;BME280_temperature;BME280_humidity;BME280_pressure;Samples;Min_cycle;Max_cycle;Signal;HPM_P1;HPM_P2
2022/08/14 00:02:19;;;;;;;6.80;4.75;;;;;;;26.15;36.90;101011.06;5092795;28;20043;-73
2022/08/14 00:04:45;;;;;;;8.13;4.75;;;;;;;26.14;37.05;101008.50;5093089;28;20044;-73
2022/08/14 00:07:13;;;;;;;5.70;4.13;;;;;;;26.14;37.10;101005.75;5093059;28;20121;-72
2022/08/14 00:09:41;;;;;;;4.50;4.10;;;;;;;26.13;37.05;100996.66;5092516;28;20047;-72
2022/08/14 00:12:30;;;;;;;5.00;4.38;;;;;;;26.12;37.18;100999.59;5093174;28;20040;-72
2022/08/14 00:15:11;;;;;;;5.13;4.63;;;;;;;26.10;37.06;100997.06;5092668;27;20110;-73
2022/08/14 00:17:41;;;;;;;4.70;4.20;;;;;;;26.09;37.34;101003.63;5092671;28;20290;-72
2022/08/14 00:20:24;;;;;;;6.00;4.75;;;;;;;26.05;37.13;100996.84;5092304;28;20054;-73
2022/08/14 00:23:13;;;;;;;4.57;4.18;;;;;;;26.02;37.13;101000.00;5092141;28;20050;-74
2022/08/14 00:25:46;;;;;;;5.32;4.22;;;;;;;26.00;37.32;100990.22;5092738;28;20063;-74
2022/08/14 00:28:27;;;;;;;7.53;4.63;;;;;;;25.95;37.51;100990.84;5092093;28;20063;-73
2022/08/14 00:30:58;;;;;;;4.90;4.40;;;;;;;25.91;37.29;100986.81;5092701;28;20139;-73
2022/08/14 00:33:27;;;;;;;6.90;4.60;;;;;;;25.89;37.03;100986.16;5089951;28;20040;-73
2022/08/14 00:36:14;;;;;;;8.90;4.70;;;;;;;25.84;37.35;100977.69;5092262;28;20039;-73
2022/08/14 00:39:02;;;;;;;5.68;4.15;;;;;;;25.82;37.29;100983.38;5090951;28;20102;-73
2022/08/14 00:41:32;;;;;;;7.18;4.50;;;;;;;25.81;37.40;100984.44;5092317;28;20043;-73
2022/08/14 00:43:59;;;;;;;6.78;4.80;;;;;;;25.79;37.61;100980.19;5092033;27;20040;-73
2022/08/14 00:46:27;;;;;;;7.07;4.45;;;;;;;25.77;37.68;100969.41;5092339;28;20467;-73
2022/08/14 00:48:58;;;;;;;6.10;4.55;;;;;;;25.76;37.59;100967.69;5074487;28;20055;-73
2022/08/14 00:51:30;;;;;;;4.53;4.03;;;;;;;25.74;37.87;100960.72;5092165;28;20047;-75
2022/08/14 00:54:07;;;;;;;5.20;4.43;;;;;;;25.69;37.88;100958.56;5090721;28;20052;-74
2022/08/14 00:56:48;;;;;;;4.78;4.28;;;;;;;25.65;37.74;100955.38;5091952;27;20048;-74
2022/08/14 00:59:15;;;;;;;5.63;4.70;;;;;;;25.62;37.60;100960.41;5091857;28;20047;-73
2022/08/14 01:01:43;;;;;;;7.72;5.10;;;;;;;25.57;37.87;100958.28;5091815;28;20079;-74
2022/08/14 01:04:11;;;;;;;6.15;4.43;;;;;;;25.55;38.09;100956.78;5090814;28;20036;-74
2022/08/14 01:06:59;;;;;;;8.07;4.53;;;;;;;25.52;37.92;100952.53;5091777;28;20059;-73
2022/08/14 01:09:30;;;;;;;4.80;3.90;;;;;;;25.52;38.31;100951.69;5090017;28;20040;-74
2022/08/14 01:11:57;;;;;;;6.70;4.05;;;;;;;25.50;38.32;100951.03;5090477;28;20036;-73
2022/08/14 01:14:31;;;;;;;6.07;4.40;;;;;;;25.46;38.44;100953.34;5091907;28;20566;-74
2022/08/14 01:17:01;;;;;;;5.15;4.32;;;;;;;25.43;38.22;100940.00;5091417;27;20413;-74
2022/08/14 01:22:17;;;;;;;6.32;4.65;;;;;;;25.37;38.52;100937.22;5091493;28;20064;-74
2022/08/14 01:24:45;;;;;;;4.80;4.40;;;;;;;25.31;38.72;100931.50;5091678;28;20046;-74
2022/08/14 01:27:18;;;;;;;5.20;4.60;;;;;;;25.28;38.47;100920.91;5089510;28;20044;-74
2022/08/14 01:29:46;;;;;;;5.65;5.15;;;;;;;25.25;38.77;100920.44;5090352;28;20035;-73
2022/08/14 01:32:31;;;;;;;5.45;4.95;;;;;;;25.20;38.48;100923.78;5091356;28;20079;-74
2022/08/14 01:35:08;;;;;;;5.57;5.07;;;;;;;25.16;38.77;100916.16;5090895;28;20493;-74
2022/08/14 01:37:56;;;;;;;6.18;5.53;;;;;;;25.12;38.83;100917.59;5091345;28;20044;-74
2022/08/14 01:40:25;;;;;;;7.18;4.90;;;;;;;25.07;38.90;100915.47;5091357;28;20048;-75
2022/08/14 01:43:13;;;;;;;9.15;5.10;;;;;;;25.05;39.26;100911.22;5090949;28;20040;-75
2022/08/14 01:45:41;;;;;;;5.10;4.60;;;;;;;25.02;39.10;100912.47;5091062;28;20052;-75
2022/08/14 01:48:14;;;;;;;7.38;4.85;;;;;;;24.99;39.01;100910.97;5071260;28;20032;-74
2022/08/14 01:50:46;;;;;;;5.90;5.30;;;;;;;24.98;39.02;100908.44;5069991;28;20552;-74
2022/08/14 01:53:16;;;;;;;6.68;5.18;;;;;;;24.95;39.09;100906.06;5070905;28;20037;-74
2022/08/14 01:55:43;;;;;;;6.55;5.35;;;;;;;24.91;39.40;100913.84;5083576;28;20056;-74
2022/08/14 01:58:11;;;;;;;6.85;5.38;;;;;;;24.89;39.34;100904.13;5090009;28;20521;-74
2022/08/14 02:00:53;;;;;;;5.82;5.22;;;;;;;24.87;39.31;100909.81;5089792;28;20569;-75
2022/08/14 02:03:30;;;;;;;9.25;5.35;;;;;;;24.87;39.45;100912.56;5091179;28;20042;-75
2022/08/14 02:05:58;;;;;;;6.10;5.50;;;;;;;24.87;39.67;100914.47;5089975;28;20387;-75
2022/08/14 02:08:45;;;;;;;6.65;5.97;;;;;;;24.87;39.46;100909.81;5070959;28;20064;-74
2022/08/14 02:11:21;;;;;;;6.75;5.88;;;;;;;24.87;39.79;100906.22;5070900;28;20033;-74
2022/08/14 02:13:59;;;;;;;5.55;4.72;;;;;;;24.83;39.72;100905.78;5070804;28;20036;-74
2022/08/14 02:16:51;;;;;;;6.40;5.50;;;;;;;24.80;39.73;100908.06;5090423;28;20036;-74
2022/08/14 02:19:23;;;;;;;6.43;5.20;;;;;;;24.76;39.59;100906.78;5091030;28;20490;-74
2022/08/14 02:21:53;;;;;;;7.72;5.75;;;;;;;24.71;40.01;100905.47;5089542;28;20054;-74
2022/08/14 02:24:24;;;;;;;9.80;6.68;;;;;;;24.67;40.02;100903.31;5089522;28;20043;-74
2022/08/14 02:27:08;;;;;;;6.60;5.75;;;;;;;24.62;39.76;100900.34;5075253;28;20109;-73
2022/08/14 02:29:55;;;;;;;7.50;5.75;;;;;;;24.57;39.95;100903.69;5089358;28;20040;-73
2022/08/14 02:32:30;;;;;;;6.63;5.90;;;;;;;24.50;40.28;100901.88;5089408;28;20107;-73
2022/08/14 02:35:15;;;;;;;;;;;;;;;24.42;40.07;100902.03;5089900;28;20055;-73
2022/08/14 02:37:47;;;;;;;6.20;5.60;;;;;;;24.36;39.81;100901.78;5072898;28;19926;-73
2022/08/14 02:40:17;;;;;;;7.18;5.30;;;;;;;24.28;40.19;100899.16;5090767;28;20071;-74
2022/08/14 02:42:45;;;;;;;7.05;6.10;;;;;;;24.23;40.54;100896.13;5090255;28;20036;-72
2022/08/14 02:45:34;;;;;;;8.23;6.90;;;;;;;24.18;40.69;100898.63;5090697;28;20485;-72
2022/08/14 02:48:12;;;;;;;7.88;6.30;;;;;;;24.15;40.96;100901.75;5095013;28;20039;-71
2022/08/14 02:51:06;;;;;;;7.63;6.03;;;;;;;24.12;40.96;100898.56;5094552;28;20044;-71
2022/08/14 02:53:44;;;;;;;8.43;7.35;;;;;;;24.07;40.91;100891.75;5094143;28;20067;-72
2022/08/14 02:56:14;;;;;;;8.55;6.70;;;;;;;24.03;40.83;100893.19;5094591;28;20068;-72
2022/08/14 02:59:00;;;;;;;8.85;6.15;;;;;;;24.01;41.08;100898.03;5094290;27;20055;-71
2022/08/14 03:01:32;;;;;;;8.80;6.35;;;;;;;23.98;41.28;100897.56;5094323;28;20071;-71
2022/08/14 03:04:11;;;;;;;8.15;6.50;;;;;;;23.93;41.27;100892.69;5091783;28;20048;-72
2022/08/14 03:06:42;;;;;;;7.05;6.35;;;;;;;23.89;41.52;100887.78;5093904;28;20028;-71
2022/08/14 03:09:29;;;;;;;7.63;6.85;;;;;;;23.86;41.54;100886.28;5093073;28;20055;-72
2022/08/14 03:12:15;;;;;;;11.68;6.75;;;;;;;23.83;41.47;100878.44;5088154;28;20040;-72
2022/08/14 03:14:57;;;;;;;9.25;7.40;;;;;;;23.78;41.58;100880.88;5088043;28;20052;-72
2022/08/14 03:17:23;;;;;;;8.27;7.38;;;;;;;23.75;41.51;100881.25;5092331;28;20394;-72
2022/08/14 03:19:51;;;;;;;7.90;7.10;;;;;;;23.71;41.94;100879.97;5093513;28;20459;-73
2022/08/14 03:22:17;;;;;;;9.13;7.18;;;;;;;23.65;41.98;100876.09;5089930;28;20059;-72
2022/08/14 03:24:44;;;;;;;9.65;7.63;;;;;;;23.60;42.31;100875.81;5093499;28;20058;-73
2022/08/14 03:27:12;;;;;;;8.68;7.80;;;;;;;23.58;42.11;100877.06;5092385;28;20040;-72
2022/08/14 03:29:39;;;;;;;9.55;8.00;;;;;;;23.56;42.29;100876.41;5091026;28;20050;-73
2022/08/14 03:32:06;;;;;;;11.68;7.72;;;;;;;23.51;42.62;100868.72;5092944;28;20051;-73
2022/08/14 03:34:36;;;;;;;8.32;6.85;;;;;;;23.47;42.54;100867.41;5093240;28;20067;-72
2022/08/14 03:37:17;;;;;;;10.52;7.57;;;;;;;23.45;42.41;100859.38;5091516;28;20081;-72
2022/08/14 03:40:05;;;;;;;13.70;7.20;;;;;;;23.43;42.55;100861.47;5092579;28;20032;-74
2022/08/14 03:42:38;;;;;;;12.90;8.40;;;;;;;23.42;42.86;100870.72;5091525;28;20040;-72
2022/08/14 03:45:05;;;;;;;8.50;7.60;;;;;;;23.41;42.63;100869.03;5093025;28;20044;-71
2022/08/14 03:47:51;;;;;;;8.57;7.78;;;;;;;23.39;42.63;100870.28;5090415;28;20039;-72
2022/08/14 03:50:25;;;;;;;9.93;7.22;;;;;;;23.35;42.61;100869.81;5091775;28;20047;-72
2022/08/14 03:55:27;;;;;;;10.15;7.80;;;;;;;23.35;42.95;100868.94;5093227;28;20089;-73
2022/08/14 03:57:56;;;;;;;9.63;7.43;;;;;;;23.34;43.35;100875.47;5092272;28;20512;-74
2022/08/14 04:00:22;;;;;;;9.02;7.70;;;;;;;23.35;43.23;100868.94;5092769;28;20036;-73
2022/08/14 04:03:13;;;;;;;9.32;7.85;;;;;;;23.33;43.24;100863.66;5093134;28;20032;-73
2022/08/14 04:05:50;;;;;;;8.68;6.70;;;;;;;23.32;43.02;100861.97;5092894;28;20498;-74
2022/08/14 04:08:19;;;;;;;8.85;7.30;;;;;;;23.33;43.17;100865.56;5093091;28;20044;-74
2022/08/14 04:10:58;;;;;;;8.13;7.35;;;;;;;23.32;43.27;100864.69;5075879;28;20328;-74
2022/08/14 04:13:36;;;;;;;8.32;7.22;;;;;;;23.31;43.58;100856.66;5092935;28;20036;-74
2022/08/14 04:16:08;;;;;;;8.20;6.93;;;;;;;23.31;43.33;100860.25;5092826;27;20486;-74
2022/08/14 04:18:44;;;;;;;8.85;7.95;;;;;;;23.30;43.42;100860.44;5092898;28;20044;-73
2022/08/14 04:21:13;;;;;;;8.18;7.38;;;;;;;23.29;43.59;100869.72;5092484;28;20046;-73
2022/08/14 04:23:47;;;;;;;10.35;7.70;;;;;;;23.27;43.38;100867.16;5092630;28;20483;-73
2022/08/14 04:26:25;;;;;;;9.10;7.45;;;;;;;23.24;43.35;100867.56;5091296;28;20062;-72
2022/08/14 04:29:08;;;;;;;9.75;7.93;;;;;;;23.21;43.34;100865.19;5092134;28;20064;-72
2022/08/14 04:31:41;;;;;;;10.63;7.50;;;;;;;23.18;43.33;100860.09;5092351;28;20086;-72
2022/08/14 04:34:29;;;;;;;9.25;7.60;;;;;;;23.18;43.83;100853.75;5092699;28;20032;-74
2022/08/14 04:45:41;;;;;;;;;;;;;;;23.03;43.47;100849.13;5073664;28;20139;-72
2022/08/14 04:48:13;;;;;;;8.63;7.45;;;;;;;23.01;43.52;100842.97;5092116;28;19926;-72
2022/08/14 04:51:01;;;;;;;8.90;8.02;;;;;;;22.91;43.61;100834.22;5092268;28;20052;-72
2022/08/14 04:53:33;;;;;;;9.05;8.15;;;;;;;22.82;43.80;100835.34;5092505;28;20036;-71
2022/08/14 04:56:13;;;;;;;11.80;8.80;;;;;;;22.75;44.32;100829.75;5091637;28;20043;-73
2022/08/14 04:59:03;;;;;;;10.45;9.35;;;;;;;22.70;44.01;100834.94;5091877;27;20040;-73
2022/08/14 05:01:40;;;;;;;12.55;9.25;;;;;;;22.69;44.06;100840.59;5091938;28;20036;-74
2022/08/14 05:04:11;;;;;;;11.73;9.38;;;;;;;22.70;44.78;100839.56;5092111;28;20124;-74
2022/08/14 05:06:41;;;;;;;13.98;9.55;;;;;;;22.72;44.41;100837.47;5091492;27;20067;-73
2022/08/14 05:09:08;;;;;;;12.57;9.80;;;;;;;22.73;44.67;100834.56;5091860;28;20048;-72
2022/08/14 05:11:40;;;;;;;10.63;9.20;;;;;;;22.77;44.82;100837.75;5090454;28;20093;-72
2022/08/14 05:14:11;;;;;;;16.70;8.82;;;;;;;22.76;45.20;100836.06;5092029;28;20393;-74
2022/08/14 05:16:58;;;;;;;12.73;8.82;;;;;;;22.76;45.08;100827.84;5090246;28;20486;-73
2022/08/14 05:19:28;;;;;;;10.82;9.40;;;;;;;22.77;45.24;100822.19;5091732;28;20506;-73
2022/08/14 05:21:58;;;;;;;13.05;9.48;;;;;;;22.79;45.11;100828.31;5091523;28;20047;-72
2022/08/14 05:24:48;;;;;;;11.13;9.80;;;;;;;22.84;45.20;100822.31;5090364;28;20036;-76
2022/08/14 05:27:19;;;;;;;11.20;9.60;;;;;;;22.88;45.10;100820.03;5091155;27;20059;-76
2022/08/14 05:29:50;;;;;;;13.10;9.90;;;;;;;22.91;45.52;100827.88;5090289;28;20051;-74
2022/08/14 05:32:17;;;;;;;12.95;10.05;;;;;;;22.93;45.65;100828.53;5106959;28;20040;-74
2022/08/14 05:34:48;;;;;;;10.80;9.60;;;;;;;22.96;45.73;100822.69;5091710;28;20037;-74
2022/08/14 05:37:15;;;;;;;10.25;9.25;;;;;;;23.01;45.55;100814.75;5089480;28;20044;-73
2022/08/14 05:39:42;;;;;;;12.57;10.25;;;;;;;23.07;45.86;100816.75;5073598;28;20401;-74
2022/08/14 05:42:09;;;;;;;12.07;10.13;;;;;;;23.13;45.85;100815.97;5091247;28;20050;-73
2022/08/14 05:44:54;;;;;;;13.20;10.15;;;;;;;23.18;45.47;100819.00;5090579;28;20425;-73
2022/08/14 05:47:22;;;;;;;10.75;9.57;;;;;;;23.22;46.03;100820.31;5091294;28;20039;-73
2022/08/14 05:49:49;;;;;;;11.70;9.57;;;;;;;23.27;46.13;100820.59;5091396;28;20124;-74
2022/08/14 05:52:17;;;;;;;12.15;10.27;;;;;;;23.31;46.01;100818.31;5091119;28;20036;-75
2022/08/14 05:55:09;;;;;;;10.95;9.85;;;;;;;23.35;45.66;100815.00;5091291;28;20036;-74
2022/08/14 05:57:53;;;;;;;11.48;10.27;;;;;;;23.40;45.88;100811.66;5091279;28;20497;-73
2022/08/14 06:00:29;;;;;;;14.70;11.10;;;;;;;23.48;45.96;100817.03;5091053;27;20078;-74
2022/08/14 06:03:15;;;;;;;11.43;10.20;;;;;;;23.56;45.93;100818.84;5090477;28;20039;-73
2022/08/14 06:05:43;;;;;;;11.90;10.70;;;;;;;23.64;45.95;100814.06;5090944;28;20132;-73
2022/08/14 06:08:22;;;;;;;11.02;9.88;;;;;;;23.75;46.20;100807.22;5091262;28;20513;-74
2022/08/14 06:11:07;;;;;;;12.48;10.18;;;;;;;23.87;45.83;100813.91;5090122;28;20059;-75
2022/08/14 06:13:42;;;;;;;12.95;9.85;;;;;;;23.97;46.04;100816.31;5090616;28;20134;-75
2022/08/14 06:16:15;;;;;;;11.88;9.57;;;;;;;24.11;46.03;100820.03;5090972;28;20044;-74
2022/08/14 06:18:48;;;;;;;13.93;9.82;;;;;;;24.23;45.94;100819.28;5089399;28;20114;-75
2022/08/14 06:21:22;;;;;;;11.75;10.55;;;;;;;24.35;45.96;100817.72;5092039;28;20082;-74
2022/08/14 06:23:49;;;;;;;10.88;8.80;;;;;;;24.50;45.58;100817.63;5093251;27;20044;-73
2022/08/14 06:26:16;;;;;;;11.07;9.77;;;;;;;24.64;45.54;100821.34;5095008;28;20040;-70
2022/08/14 06:28:47;;;;;;;11.43;9.27;;;;;;;24.81;45.71;100817.22;5095090;28;20032;-73
2022/08/14 06:31:19;;;;;;;10.77;9.30;;;;;;;24.99;45.53;100811.22;5094434;28;20395;-73
2022/08/14 06:33:48;;;;;;;11.30;9.13;;;;;;;25.18;45.76;100809.59;5093993;28;20068;-70
2022/08/14 06:36:36;;;;;;;11.27;8.65;;;;;;;25.39;45.28;100803.16;5094634;28;20044;-70
2022/08/14 06:39:03;;;;;;;11.10;9.02;;;;;;;25.55;45.01;100805.53;5094761;28;20051;-71
2022/08/14 06:41:36;;;;;;;10.15;8.60;;;;;;;25.74;44.99;100801.16;5094404;28;20405;-71
2022/08/14 06:44:26;;;;;;;9.77;8.77;;;;;;;25.96;44.81;100799.91;5094867;28;20263;-71
2022/08/14 06:47:02;;;;;;;10.50;8.85;;;;;;;26.19;44.64;100810.53;5094191;28;20097;-70
2022/08/14 06:49:29;;;;;;;9.43;8.45;;;;;;;26.38;44.44;100803.34;5094698;28;20139;-71
2022/08/14 06:52:09;;;;;;;9.13;8.25;;;;;;;26.56;44.30;100806.28;5094394;28;20119;-70
2022/08/14 06:54:41;;;;;;;9.75;8.75;;;;;;;26.73;44.08;100801.16;5094126;28;20130;-71
2022/08/14 06:57:08;;;;;;;8.90;7.45;;;;;;;26.90;43.80;100807.94;5094442;28;20036;-71
2022/08/14 06:59:35;;;;;;;9.00;8.10;;;;;;;27.09;43.82;100796.00;5093920;28;20062;-71
2022/08/14 07:07:47;;;;;;;10.25;8.25;;;;;;;27.61;43.00;100787.75;5094317;28;20036;-71
2022/08/14 07:10:14;;;;;;;10.70;8.43;;;;;;;27.75;42.87;100783.81;5094108;28;20532;-71
2022/08/14 07:12:44;;;;;;;9.40;8.13;;;;;;;27.91;42.65;100782.44;5093858;28;20078;-71
2022/08/14 07:15:32;;;;;;;8.70;7.80;;;;;;;28.08;42.40;100780.81;5092429;28;20056;-71
2022/08/14 07:18:06;;;;;;;8.98;7.63;;;;;;;28.22;42.23;100784.28;5094076;28;20063;-71
2022/08/14 07:20:34;;;;;;;11.23;7.78;;;;;;;28.41;42.04;100786.94;5092591;28;20489;-71
2022/08/14 07:23:07;;;;;;;8.88;7.88;;;;;;;28.63;41.68;100786.50;5093909;28;20048;-72
2022/08/14 07:25:39;;;;;;;9.07;8.13;;;;;;;28.88;41.50;100781.78;5093682;28;20109;-71
2022/08/14 07:28:09;;;;;;;9.95;7.35;;;;;;;29.09;40.97;100778.56;5093914;28;20486;-71
2022/08/14 07:30:46;;;;;;;9.32;8.43;;;;;;;29.28;40.69;100775.75;5093086;28;20054;-72
2022/08/14 07:33:18;;;;;;;10.15;7.53;;;;;;;29.46;40.60;100775.75;5092270;28;20293;-72
2022/08/14 07:35:50;;;;;;;7.63;6.93;;;;;;;29.55;40.14;100774.34;5092688;27;20456;-68
2022/08/14 07:38:26;;;;;;;9.07;7.25;;;;;;;29.66;40.01;100767.16;5093616;28;20090;-76
2022/08/14 07:41:04;;;;;;;7.60;6.75;;;;;;;29.81;39.76;100773.13;5093629;28;20097;-71
2022/08/14 07:43:44;;;;;;;7.32;6.63;;;;;;;29.95;39.53;100762.66;5093464;28;20044;-72
2022/08/14 07:46:21;;;;;;;6.88;6.07;;;;;;;30.09;39.61;100774.41;5093334;27;20509;-72
2022/08/14 07:48:55;;;;;;;10.60;6.60;;;;;;;30.24;39.38;100774.75;5093760;28;20087;-72
2022/08/14 07:51:22;;;;;;;6.80;6.05;;;;;;;30.33;38.98;100771.41;5093401;28;20032;-72
2022/08/14 07:53:54;;;;;;;6.88;6.18;;;;;;;30.47;38.76;100773.91;5093344;28;20444;-72
2022/08/14 07:56:23;;;;;;;7.05;6.32;;;;;;;30.62;38.44;100772.41;5092065;28;20553;-72
2022/08/14 07:59:10;;;;;;;10.45;6.68;;;;;;;30.73;38.15;100765.16;5093288;28;20032;-72
2022/08/14 08:01:39;;;;;;;7.43;6.45;;;;;;;30.81;38.09;100762.00;5093070;28;20397;-72
2022/08/14 08:04:23;;;;;;;9.70;6.07;;;;;;;31.02;37.97;100762.44;5093418;28;20044;-72
2022/08/14 08:06:53;;;;;;;8.95;6.60;;;;;;;31.20;37.90;100763.13;5093303;28;20093;-72
2022/08/14 08:09:26;;;;;;;8.23;6.50;;;;;;;31.37;37.14;100760.44;5093128;28;20271;-72
2022/08/14 08:12:00;;;;;;;7.80;6.32;;;;;;;31.54;37.36;100763.25;5092810;28;20544;-74
2022/08/14 08:14:35;;;;;;;18.98;7.30;;;;;;;31.66;36.87;100765.97;5093254;28;20127;-76
2022/08/14 08:17:22;;;;;;;10.40;6.90;;;;;;;31.72;36.51;100765.00;5092034;28;20151;-73
2022/08/14 08:19:49;;;;;;;10.52;6.45;;;;;;;31.77;36.55;100767.84;5097574;27;20052;-72
2022/08/14 08:22:20;;;;;;;8.52;6.53;;;;;;;31.84;36.21;100769.38;5090794;28;20502;-72
2022/08/14 08:24:47;;;;;;;7.50;6.70;;;;;;;31.93;36.15;100758.69;5092296;28;20505;-72
2022/08/14 08:27:18;;;;;;;7.60;6.22;;;;;;;31.99;36.07;100766.06;5092235;28;20490;-73
2022/08/14 08:29:47;;;;;;;9.35;6.63;;;;;;;32.08;35.97;100770.09;5091147;28;20146;-74
2022/08/14 08:32:17;;;;;;;7.05;6.35;;;;;;;32.14;35.86;100760.75;5103203;28;20040;-73
2022/08/14 08:34:45;;;;;;;6.45;5.85;;;;;;;32.26;35.79;100762.63;5109942;27;20458;-74
2022/08/14 08:37:13;;;;;;;7.75;6.55;;;;;;;32.41;35.65;100758.13;5091007;28;20417;-73
2022/08/14 08:39:47;;;;;;;7.90;5.75;;;;;;;32.51;35.08;100760.22;5091103;28;20044;-73
2022/08/14 08:42:31;;;;;;;9.07;6.45;;;;;;;32.62;35.29;100756.47;5090376;28;20050;-73
2022/08/14 08:45:13;;;;;;;7.32;5.25;;;;;;;32.70;34.60;100752.41;5091892;28;20123;-73
2022/08/14 08:47:42;;;;;;;7.30;5.68;;;;;;;32.75;34.82;100753.34;5091895;28;20417;-74
2022/08/14 08:50:29;;;;;;;6.53;5.80;;;;;;;32.85;34.41;100755.47;5092302;28;20036;-73
2022/08/14 08:53:06;;;;;;;6.18;5.57;;;;;;;32.96;34.38;100750.88;5091566;28;20097;-78
2022/08/14 08:55:34;;;;;;;7.20;5.65;;;;;;;33.06;34.31;100746.28;5091164;28;20397;-74
2022/08/14 08:58:05;;;;;;;8.85;6.03;;;;;;;33.18;34.02;100746.97;5090550;28;20047;-73
2022/08/14 09:00:46;;;;;;;9.82;6.07;;;;;;;33.32;33.79;100741.03;5091941;28;20048;-73
2022/08/14 09:03:20;;;;;;;5.85;5.22;;;;;;;33.37;33.72;100741.91;5091381;28;20351;-73
2022/08/14 09:05:54;;;;;;;6.15;5.55;;;;;;;33.44;33.25;100745.38;5071365;28;20502;-73
2022/08/14 09:08:25;;;;;;;;;;;;;;;33.50;33.43;100745.41;5071905;28;20484;-74
2022/08/14 09:11:05;;;;;;;6.47;5.80;;;;;;;33.60;33.65;100737.16;5071606;28;19924;-73
2022/08/14 09:13:52;;;;;;;8.20;5.95;;;;;;;33.74;33.43;100738.41;5075565;28;20087;-74
2022/08/14 09:16:21;;;;;;;6.30;5.70;;;;;;;33.83;33.27;100727.66;5091227;28;20389;-73
2022/08/14 09:18:50;;;;;;;6.60;5.40;;;;;;;33.89;32.75;100730.22;5090214;28;20110;-73
2022/08/14 09:21:19;;;;;;;7.57;5.60;;;;;;;33.89;32.57;100727.41;5091212;28;20448;-74
2022/08/14 09:23:56;;;;;;;7.82;5.10;;;;;;;33.96;32.23;100727.19;5091300;28;20437;-72
2022/08/14 09:26:44;;;;;;;6.57;5.47;;;;;;;34.09;32.07;100719.22;5091299;28;20114;-74
2022/08/14 09:29:16;;;;;;;6.07;5.47;;;;;;;34.26;32.38;100715.44;5090189;28;20047;-74
2022/08/14 09:31:49;;;;;;;6.00;5.10;;;;;;;34.42;32.09;100709.72;5089420;28;20143;-73
2022/08/14 09:34:56;;;;;;;5.68;5.03;;;;;;;34.53;31.49;100712.56;5091794;28;20032;-73
2022/08/14 09:37:33;;;;;;;7.28;5.47;;;;;;;34.58;31.58;100704.22;5091535;28;20101;-73
2022/08/14 09:40:26;;;;;;;11.48;5.70;;;;;;;34.60;31.23;100711.22;5091172;28;20130;-73
2022/08/14 09:43:12;;;;;;;8.30;5.00;;;;;;;34.72;31.26;100705.41;5090675;28;20575;-73
2022/08/14 09:45:48;;;;;;;9.95;5.38;;;;;;;34.81;31.23;100703.78;5091160;28;20070;-73
2022/08/14 09:48:21;;;;;;;6.60;5.90;;;;;;;34.87;30.98;100693.50;5091185;28;20568;-73
2022/08/14 09:50:58;;;;;;;5.68;5.07;;;;;;;34.94;30.62;100694.13;5090851;28;20413;-74
2022/08/14 09:53:36;;;;;;;9.18;5.57;;;;;;;35.01;30.54;100692.75;5090530;28;20024;-74
2022/08/14 09:56:24;;;;;;;7.25;5.00;;;;;;;35.13;30.34;100686.91;5090377;28;20055;-72
2022/08/14 09:59:09;;;;;;;6.05;4.75;;;;;;;35.22;30.46;100682.47;5089292;28;20083;-74
2022/08/14 10:01:36;;;;;;;6.32;5.40;;;;;;;35.29;30.01;100685.00;5090774;28;20475;-74
2022/08/14 10:04:17;;;;;;;7.10;5.15;;;;;;;35.31;30.33;100682.75;5091137;28;20045;-75
2022/08/14 10:07:04;;;;;;;5.40;4.90;;;;;;;35.42;29.83;100672.47;5091054;28;20044;-76
2022/08/14 10:09:31;;;;;;;5.00;4.60;;;;;;;35.50;29.64;100669.97;5090858;28;20098;-75
2022/08/14 10:12:01;;;;;;;5.65;5.07;;;;;;;35.61;29.92;100670.81;5089967;28;20036;-73
2022/08/14 10:14:33;;;;;;;5.93;5.32;;;;;;;35.70;29.12;100671.09;5091036;28;20040;-75
2022/08/14 10:17:04;;;;;;;7.15;5.28;;;;;;;35.76;29.19;100665.22;5090759;28;20048;-75
2022/08/14 10:19:34;;;;;;;6.40;5.03;;;;;;;35.79;29.19;100659.09;5090832;28;20038;-75
2022/08/14 10:22:07;;;;;;;5.75;4.88;;;;;;;35.83;29.20;100654.66;5090411;28;20048;-78
2022/08/14 10:24:56;;;;;;;7.57;5.18;;;;;;;35.89;28.75;100661.91;5091005;28;20040;-74
2022/08/14 10:27:25;;;;;;;6.00;4.55;;;;;;;35.97;28.64;100654.91;5090533;27;20056;-74
2022/08/14 10:30:03;;;;;;;5.93;4.90;;;;;;;36.06;28.53;100655.16;5090440;28;20149;-75
2022/08/14 10:32:29;;;;;;;5.00;4.60;;;;;;;36.16;28.69;100643.97;5090367;28;20036;-74
2022/08/14 10:35:15;;;;;;;23.73;20.42;;;;;;;36.23;28.40;100648.13;5090986;28;20119;-73
2022/08/14 10:37:46;;;;;;;6.53;4.85;;;;;;;36.37;28.10;100639.16;5089512;27;20056;-74
2022/08/14 10:40:34;;;;;;;5.47;4.97;;;;;;;36.53;28.21;100644.44;5088531;28;20512;-73
2022/08/14 10:43:24;;;;;;;5.20;4.35;;;;;;;36.73;27.90;100632.31;5088514;28;20134;-73
2022/08/14 10:45:54;;;;;;;10.48;5.80;;;;;;;36.87;27.22;100633.38;5090463;28;20509;-72
2022/08/14 10:48:30;;;;;;;6.47;4.28;;;;;;;37.00;26.92;100629.09;5087730;28;20138;-73
2022/08/14 10:51:06;;;;;;;6.95;4.63;;;;;;;37.13;26.82;100628.47;5090255;28;20044;-73
2022/08/14 10:53:38;;;;;;;5.03;4.30;;;;;;;37.27;26.81;100625.06;5089031;28;20093;-73
2022/08/14 10:56:12;;;;;;;5.50;4.40;;;;;;;37.36;26.55;100606.50;5089278;28;20494;-73
2022/08/14 10:59:06;;;;;;;4.97;4.47;;;;;;;37.40;26.15;100611.22;5090443;28;20048;-73
2022/08/14 11:01:37;;;;;;;5.30;3.95;;;;;;;37.46;26.24;100607.25;5069711;28;20086;-74
2022/08/14 11:04:24;;;;;;;6.27;4.50;;;;;;;37.54;25.82;100600.19;5069010;28;20044;-75
2022/08/14 11:06:55;;;;;;;4.70;4.22;;;;;;;37.60;26.03;100613.00;5068821;28;20094;-75
2022/08/14 11:09:22;;;;;;;4.45;3.97;;;;;;;37.67;25.78;100607.06;5091522;28;20040;-75
2022/08/14 11:11:55;;;;;;;4.45;4.05;;;;;;;37.74;25.17;100602.81;5093419;28;20032;-74
2022/08/14 11:14:59;;;;;;;5.78;3.90;;;;;;;37.81;24.68;100592.09;5094096;28;20051;-74
2022/08/14 11:17:30;;;;;;;6.35;4.45;;;;;;;37.86;24.78;100591.19;5092345;28;20395;-73
2022/08/14 11:20:00;;;;;;;7.38;4.57;;;;;;;37.92;25.10;100597.63;5093987;28;20058;-73
2022/08/14 11:22:29;;;;;;;5.60;4.50;;;;;;;37.97;25.19;100591.94;5093046;28;20032;-72
2022/08/14 11:25:19;;;;;;;6.65;4.55;;;;;;;38.02;24.92;100601.13;5093886;28;20028;-73
2022/08/14 11:27:47;;;;;;;4.85;4.35;;;;;;;38.05;24.48;100602.50;5093443;28;20040;-73
2022/08/14 11:30:18;;;;;;;6.75;4.65;;;;;;;37.98;24.48;100607.63;5092236;28;20044;-73
2022/08/14 11:33:12;;;;;;;4.82;4.35;;;;;;;37.98;24.49;100607.63;5092955;28;20044;-72
2022/08/14 11:35:47;;;;;;;5.07;4.28;;;;;;;37.95;24.29;100591.41;5093354;27;20072;-75
2022/08/14 11:38:16;;;;;;;5.00;4.03;;;;;;;37.99;24.50;100603.69;5092398;28;20048;-74
2022/08/14 11:40:45;;;;;;;5.43;4.35;;;;;;;38.03;23.81;100588.78;5092552;28;20048;-74
2022/08/14 11:43:17;;;;;;;4.55;4.05;;;;;;;38.11;24.41;100588.13;5075318;28;20477;-73
2022/08/14 11:45:55;;;;;;;4.38;3.97;;;;;;;38.23;24.57;100592.50;5091631;28;20055;-75
2022/08/14 11:48:23;;;;;;;4.57;4.13;;;;;;;38.34;24.10;100589.28;5091989;28;20044;-75
2022/08/14 11:51:16;;;;;;;6.88;3.85;;;;;;;38.47;23.86;100582.94;5092428;28;20066;-74
2022/08/14 11:53:59;;;;;;;4.93;3.83;;;;;;;38.61;24.04;100587.84;5093387;28;20036;-75
2022/08/14 11:56:36;;;;;;;3.60;2.95;;;;;;;38.70;23.30;100572.00;5092991;28;20298;-75
2022/08/14 11:59:08;;;;;;;5.05;3.45;;;;;;;38.83;22.72;100578.84;5093309;28;20052;-75
2022/08/14 12:01:37;;;;;;;4.32;3.75;;;;;;;38.99;22.89;100569.03;5092068;28;20036;-75
2022/08/14 12:04:17;;;;;;;4.40;4.00;;;;;;;39.09;22.56;100564.13;5093198;28;20066;-75
2022/08/14 12:06:59;;;;;;;8.48;4.45;;;;;;;39.17;22.69;100559.78;5092836;28;20066;-76
2022/08/14 12:09:31;;;;;;;4.28;3.85;;;;;;;39.16;22.35;100540.44;5092861;28;20039;-74
2022/08/14 12:11:59;;;;;;;5.30;3.97;;;;;;;39.17;22.23;100550.53;5091785;28;20046;-74
2022/08/14 12:14:27;;;;;;;4.10;2.97;;;;;;;39.16;22.26;100538.47;5092019;28;20032;-74
2022/08/14 12:17:06;;;;;;;4.30;2.95;;;;;;;39.18;21.52;100540.97;5092698;28;20043;-75
2022/08/14 12:19:47;;;;;;;4.15;3.40;;;;;;;39.15;21.68;100548.03;5090453;28;20520;-76
2022/08/14 12:22:33;;;;;;;3.60;3.30;;;;;;;39.06;21.10;100541.44;5087755;28;20098;-76